Wan Hai 273 — 9V7586 — position and weather

sailwx.info

Track history (hours):
 
Tides and Currents Weather Stations Pressure Air Temp Water Temp Dewpoint Dewpoint Depression Visibility Wind Speed Wind Dir Waves Ship Positions

Wan Hai 273

Last reported at 2016-Jun-25 00:17 UTC. Time now 2016-Jun-25 19:38 UTC.
Position N 34°58' E 122°17'.

Length 172 m; draft 7.3 m.

Type: Cargo ship. MMSI: 566406000.

Date/timePositionNaut miles runAvg speedWind from/ knotsBaromVisibWave heightAir tempDewpointWater temp
2016-Jun-25 00:17N 34°58' E 122°17'1416.9
2016-Jun-24 23:27N 34°50' E 122°31'1616.9
2016-Jun-24 22:31N 34°41' E 122°47'  
2016-Jun-21 22:33N 34°31' E 138°25'5516.2
2016-Jun-21 19:08N 34°57' E 139°24'1016.9
2016-Jun-21 18:33N 35°02' E 139°34'1514.8
2016-Jun-21 17:33N 35°13' E 139°46'1212.4
2016-Jun-21 16:33N 35°25' E 139°45'1110.8
2016-Jun-21 15:33N 35°36' E 139°46'0 0.1
2016-Jun-21 14:31N 35°36' E 139°46'0 0.0
2016-Jun-21 13:31N 35°36' E 139°46'0 0.0
2016-Jun-21 12:31N 35°36' E 139°46'0 0.0
2016-Jun-21 11:31N 35°36' E 139°46'0 0.0
2016-Jun-21 10:31N 35°36' E 139°46'0 0.0
2016-Jun-21 09:31N 35°36' E 139°46'0 0.0
2016-Jun-21 08:31N 35°36' E 139°46'0 0.0
2016-Jun-21 07:31N 35°36' E 139°46'5 1.6
2016-Jun-21 04:31N 35°34' E 139°51'0 0.0
2016-Jun-21 03:31N 35°34' E 139°51'0 0.1
2016-Jun-21 02:31N 35°34' E 139°51'0 0.0
2016-Jun-21 01:31N 35°34' E 139°51'0 0.1
2016-Jun-21 00:31N 35°34' E 139°51'0 0.0
2016-Jun-20 23:31N 35°34' E 139°51'0 0.0
2016-Jun-20 22:28N 35°34' E 139°51'2 1.9
2016-Jun-20 21:33N 35°32' E 139°52'1010.1
2016-Jun-20 20:33N 35°26' E 139°42'1 1.4
2016-Jun-20 19:31N 35°27' E 139°41'0 0.0
2016-Jun-20 18:31N 35°27' E 139°41'0 0.0
2016-Jun-20 17:31N 35°27' E 139°41'0 0.0
2016-Jun-20 16:31N 35°27' E 139°41'0 0.0
2016-Jun-20 15:31N 35°27' E 139°41'0 0.0
2016-Jun-20 14:31N 35°27' E 139°41'0 0.0
2016-Jun-20 13:31N 35°27' E 139°41'0 0.0
2016-Jun-20 12:31N 35°27' E 139°41'0 0.0
2016-Jun-20 11:31N 35°27' E 139°41'0 0.0
2016-Jun-20 10:31N 35°27' E 139°41'0 0.0
2016-Jun-20 09:31N 35°27' E 139°41'0 0.0
2016-Jun-20 08:31N 35°27' E 139°41'1 1.3
2016-Jun-20 07:33N 35°26' E 139°42'8 7.8
2016-Jun-20 06:33N 35°19' E 139°44'1111.1
2016-Jun-20 05:33N 35°08' E 139°46'1111.5
2016-Jun-20 04:33N 34°58' E 139°38'1818.2
2016-Jun-20 03:33N 34°49' E 139°19'  
2016-Jun-17 09:28N 23°41' E 118°29'24218.3
2016-Jun-16 20:17N 22°34' E 114°17'1 1.2
2016-Jun-16 19:24N 22°34' E 114°15'0 0.0
2016-Jun-16 18:30N 22°34' E 114°15'0 0.0
2016-Jun-16 14:34N 22°34' E 114°15'23 7.4
2016-Jun-16 11:29N 22°13' E 114°25'18 8.4
2016-Jun-16 09:21N 22°16' E 114°06'810.0
2016-Jun-16 08:30N 22°21' E 113°59'8 8.1
2016-Jun-16 07:33N 22°27' E 113°54'1 0.7
2016-Jun-16 06:28N 22°28' E 113°54'0 0.0
2016-Jun-16 05:28N 22°28' E 113°54'0 0.0
2016-Jun-16 04:28N 22°28' E 113°54'0 0.0
2016-Jun-16 03:10N 22°28' E 113°54'0 0.0
2016-Jun-16 02:22N 22°28' E 113°54'0 0.0
2016-Jun-16 01:28N 22°28' E 113°54'10 2.5
2016-Jun-15 21:22N 22°21' E 114°02'4 4.1
2016-Jun-15 20:30N 22°18' E 114°05'0 0.1
2016-Jun-15 19:33N 22°18' E 114°05'0 0.0
2016-Jun-15 18:33N 22°18' E 114°05'3 0.5
2016-Jun-15 12:32N 22°20' E 114°07'0 0.0
2016-Jun-15 07:21N 22°20' E 114°07'4 4.5
2016-Jun-15 06:33N 22°17' E 114°06'1110.5
2016-Jun-15 05:33N 22°09' E 114°14'1010.1
2016-Jun-15 04:34N 22°03' E 114°22'  
Track history (hours):
 
Tides and Currents Weather Stations Pressure Air Temp Water Temp Dewpoint Dewpoint Depression Visibility Wind Speed Wind Dir Waves Ship Positions

Wan Hai 273

Last reported at 2016-Jun-25 00:17 UTC. Time now 2016-Jun-25 19:38 UTC.
Position N 34°58' E 122°17'.

Length 172 m; draft 7.3 m.

Type: Cargo ship. MMSI: 566406000.

Date/timePositionNaut miles runAvg speedWind from/ knotsBaromVisibWave heightAir tempDewpointWater temp
2016-Jun-25 00:17N 34°58' E 122°17'1416.9
2016-Jun-24 23:27N 34°50' E 122°31'1616.9
2016-Jun-24 22:31N 34°41' E 122°47'  
2016-Jun-21 22:33N 34°31' E 138°25'5516.2
2016-Jun-21 19:08N 34°57' E 139°24'1016.9
2016-Jun-21 18:33N 35°02' E 139°34'1514.8
2016-Jun-21 17:33N 35°13' E 139°46'1212.4
2016-Jun-21 16:33N 35°25' E 139°45'1110.8
2016-Jun-21 15:33N 35°36' E 139°46'0 0.1
2016-Jun-21 14:31N 35°36' E 139°46'0 0.0
2016-Jun-21 13:31N 35°36' E 139°46'0 0.0
2016-Jun-21 12:31N 35°36' E 139°46'0 0.0
2016-Jun-21 11:31N 35°36' E 139°46'0 0.0
2016-Jun-21 10:31N 35°36' E 139°46'0 0.0
2016-Jun-21 09:31N 35°36' E 139°46'0 0.0
2016-Jun-21 08:31N 35°36' E 139°46'0 0.0
2016-Jun-21 07:31N 35°36' E 139°46'5 1.6
2016-Jun-21 04:31N 35°34' E 139°51'0 0.0
2016-Jun-21 03:31N 35°34' E 139°51'0 0.1
2016-Jun-21 02:31N 35°34' E 139°51'0 0.0
2016-Jun-21 01:31N 35°34' E 139°51'0 0.1
2016-Jun-21 00:31N 35°34' E 139°51'0 0.0
2016-Jun-20 23:31N 35°34' E 139°51'0 0.0
2016-Jun-20 22:28N 35°34' E 139°51'2 1.9
2016-Jun-20 21:33N 35°32' E 139°52'1010.1
2016-Jun-20 20:33N 35°26' E 139°42'1 1.4
2016-Jun-20 19:31N 35°27' E 139°41'0 0.0
2016-Jun-20 18:31N 35°27' E 139°41'0 0.0
2016-Jun-20 17:31N 35°27' E 139°41'0 0.0
2016-Jun-20 16:31N 35°27' E 139°41'0 0.0
2016-Jun-20 15:31N 35°27' E 139°41'0 0.0
2016-Jun-20 14:31N 35°27' E 139°41'0 0.0
2016-Jun-20 13:31N 35°27' E 139°41'0 0.0
2016-Jun-20 12:31N 35°27' E 139°41'0 0.0
2016-Jun-20 11:31N 35°27' E 139°41'0 0.0
2016-Jun-20 10:31N 35°27' E 139°41'0 0.0
2016-Jun-20 09:31N 35°27' E 139°41'0 0.0
2016-Jun-20 08:31N 35°27' E 139°41'1 1.3
2016-Jun-20 07:33N 35°26' E 139°42'8 7.8
2016-Jun-20 06:33N 35°19' E 139°44'1111.1
2016-Jun-20 05:33N 35°08' E 139°46'1111.5
2016-Jun-20 04:33N 34°58' E 139°38'1818.2
2016-Jun-20 03:33N 34°49' E 139°19'  
2016-Jun-17 09:28N 23°41' E 118°29'24218.3
2016-Jun-16 20:17N 22°34' E 114°17'1 1.2
2016-Jun-16 19:24N 22°34' E 114°15'0 0.0
2016-Jun-16 18:30N 22°34' E 114°15'0 0.0
2016-Jun-16 14:34N 22°34' E 114°15'23 7.4
2016-Jun-16 11:29N 22°13' E 114°25'18 8.4
2016-Jun-16 09:21N 22°16' E 114°06'810.0
2016-Jun-16 08:30N 22°21' E 113°59'8 8.1
2016-Jun-16 07:33N 22°27' E 113°54'1 0.7
2016-Jun-16 06:28N 22°28' E 113°54'0 0.0
2016-Jun-16 05:28N 22°28' E 113°54'0 0.0
2016-Jun-16 04:28N 22°28' E 113°54'0 0.0
2016-Jun-16 03:10N 22°28' E 113°54'0 0.0
2016-Jun-16 02:22N 22°28' E 113°54'0 0.0
2016-Jun-16 01:28N 22°28' E 113°54'10 2.5
2016-Jun-15 21:22N 22°21' E 114°02'4 4.1
2016-Jun-15 20:30N 22°18' E 114°05'0 0.1
2016-Jun-15 19:33N 22°18' E 114°05'0 0.0
2016-Jun-15 18:33N 22°18' E 114°05'3 0.5
2016-Jun-15 12:32N 22°20' E 114°07'0 0.0
2016-Jun-15 07:21N 22°20' E 114°07'4 4.5
2016-Jun-15 06:33N 22°17' E 114°06'1110.5
2016-Jun-15 05:33N 22°09' E 114°14'1010.1
2016-Jun-15 04:34N 22°03' E 114°22'  

Dump ship's entire track history